»·PEaware :: N333ZA KBLH-P19

N333ZA :: KBLH-P19

FLIGHT INFORMATION

Flight Status: Arrived
Operator: Privately registered:
United States
More flights under this callsign
Pilot: Judd H. (29974)
Aircraft: CESSNA 210 CENTURION
(C210)
More flights by this aircraft type
Origin: KBLH Blythe
United States
Destination: P19 Stellar
United States
More flights between these airports :: More routes between these airports
Route: +JAROZ V16 BXK JAROD
File this flight plan on PilotEdge
Remarks:
Altitude:
(Current/Filed)
15,000ft
Speed:
(Current/Filed)
150kts
Departed: 01-Nov-20 12:28 PM
Arrived: 01-Nov-20 01:38 PM
Distance/Time
Traveled:
141nm/1:10
Distance/Time
To Go:
Arrived

Flight Plot

Page will automatically refresh every two minutes.

Flight plan parsing failed; only flown route is shown


Map Options




Map Legend


Flown Route
Filed Route
Departure Airport
Arrival Airport
Navaid (VOR, NDB)
Fix

Horizontal Profiles

Position Reports

Time Latitude Longitude Heading Altitude Ground
Speed
01-Nov-20 12:18 33.614810 -114.713104 5 400ft 0kts
01-Nov-20 12:19 33.614812 -114.713104 5 400ft 0kts
01-Nov-20 12:20 33.615043 -114.712927 60 400ft 0kts
01-Nov-20 12:21 33.615043 -114.712927 60 400ft 0kts
01-Nov-20 12:22 33.615043 -114.712927 60 400ft 0kts
01-Nov-20 12:23 33.615044 -114.712926 60 400ft 0kts
01-Nov-20 12:24 33.615120 -114.711077 91 400ft 11kts
01-Nov-20 12:25 33.615139 -114.707214 72 400ft 10kts
01-Nov-20 12:26 33.616522 -114.706859 270 400ft 11kts
01-Nov-20 12:27 33.616595 -114.726143 273 618ft 99kts
01-Nov-20 12:28 33.603132 -114.748860 140 1698ft 113kts
01-Nov-20 12:29 33.598915 -114.711133 89 2684ft 113kts
01-Nov-20 12:30 33.598836 -114.674310 88 3697ft 109kts
01-Nov-20 12:31 33.600204 -114.638030 88 4691ft 107kts
01-Nov-20 12:32 33.598496 -114.604080 97 5668ft 99kts
01-Nov-20 12:33 33.596845 -114.571359 73 6607ft 106kts
01-Nov-20 12:34 33.592034 -114.538253 106 7588ft 100kts
01-Nov-20 12:35 33.584575 -114.506716 107 8580ft 96kts
01-Nov-20 12:36 33.577320 -114.475304 101 9469ft 102kts
01-Nov-20 12:37 33.575068 -114.439653 97 10338ft 109kts
01-Nov-20 12:38 33.572784 -114.403121 99 11284ft 108kts
01-Nov-20 12:39 33.569905 -114.368175 99 12234ft 103kts
01-Nov-20 12:40 33.567208 -114.334805 99 13088ft 100kts
01-Nov-20 12:41 33.564043 -114.298269 99 13735ft 120kts
01-Nov-20 12:42 33.560023 -114.255604 99 14363ft 135kts
01-Nov-20 12:43 33.555595 -114.209020 99 14949ft 146kts
01-Nov-20 12:44 33.551880 -114.155995 95 14993ft 170kts
01-Nov-20 12:45 33.549480 -114.098033 95 14991ft 175kts
01-Nov-20 12:46 33.546362 -114.039642 98 14991ft 175kts
01-Nov-20 12:47 33.542038 -113.981622 97 14990ft 175kts
01-Nov-20 12:48 33.537900 -113.923233 97 14990ft 175kts
01-Nov-20 12:49 33.533986 -113.865007 96 14990ft 175kts
01-Nov-20 12:50 33.530772 -113.806602 96 14990ft 175kts
01-Nov-20 12:51 33.526329 -113.748176 98 14990ft 175kts
01-Nov-20 12:52 33.521302 -113.690131 98 14990ft 175kts
01-Nov-20 12:53 33.516266 -113.632005 98 14994ft 175kts
01-Nov-20 12:54 33.511237 -113.573931 98 14996ft 175kts
01-Nov-20 12:55 33.506916 -113.515792 96 15001ft 175kts
01-Nov-20 12:56 33.503711 -113.457277 96 15021ft 175kts
01-Nov-20 12:57 33.500538 -113.399141 96 15025ft 175kts
01-Nov-20 12:58 33.496784 -113.340409 98 15027ft 176kts
01-Nov-20 12:59 33.492020 -113.281902 98 15026ft 177kts
01-Nov-20 13:00 33.487359 -113.222911 98 15023ft 178kts
01-Nov-20 13:01 33.482882 -113.163785 98 15017ft 178kts
01-Nov-20 13:02 33.478844 -113.104455 98 14999ft 179kts
01-Nov-20 13:03 33.475288 -113.044866 98 14994ft 179kts
01-Nov-20 13:04 33.469905 -112.985935 102 14992ft 178kts
01-Nov-20 13:05 33.463055 -112.927091 102 14990ft 178kts
01-Nov-20 13:06 33.456241 -112.868274 102 14990ft 178kts
01-Nov-20 13:07 33.452029 -112.808840 96 14991ft 180kts
01-Nov-20 13:08 33.451486 -112.748464 95 14989ft 180kts
01-Nov-20 13:09 33.440460 -112.691866 126 14660ft 182kts
01-Nov-20 13:10 33.413758 -112.640616 113 13987ft 181kts
01-Nov-20 13:11 33.399077 -112.583591 110 13395ft 178kts
01-Nov-20 13:12 33.384554 -112.527333 112 12798ft 175kts
01-Nov-20 13:13 33.367641 -112.472353 113 12201ft 177kts
01-Nov-20 13:14 33.350277 -112.417007 113 11599ft 176kts
01-Nov-20 13:15 33.332892 -112.362496 113 11000ft 174kts
01-Nov-20 13:16 33.314093 -112.309325 115 10399ft 172kts
01-Nov-20 13:17 33.294904 -112.257176 115 9799ft 170kts
01-Nov-20 13:18 33.275821 -112.205618 114 9199ft 168kts
01-Nov-20 13:19 33.257064 -112.154421 114 8595ft 166kts
01-Nov-20 13:20 33.238790 -112.105377 114 7994ft 158kts
01-Nov-20 13:21 33.223343 -112.056328 108 7393ft 157kts
01-Nov-20 13:22 33.210287 -112.007914 109 7005ft 144kts
01-Nov-20 13:23 33.197746 -111.963612 109 6629ft 150kts
01-Nov-20 13:24 33.187845 -111.930803 111 6389ft 142kts
01-Nov-20 13:25 33.181502 -111.912149 115 6703ft 120kts
01-Nov-20 13:26 33.167302 -111.875992 115 7020ft 120kts
01-Nov-20 13:27 33.150099 -111.839113 127 6367ft 133kts
01-Nov-20 13:28 33.118825 -111.823195 209 5458ft 148kts
01-Nov-20 13:29 33.132584 -111.854870 354 4403ft 159kts
01-Nov-20 13:30 33.173156 -111.870857 341 3567ft 149kts
01-Nov-20 13:31 33.210141 -111.885602 344 2766ft 127kts
01-Nov-20 13:32 33.237865 -111.894612 352 2497ft 100kts
01-Nov-20 13:33 33.263592 -111.913010 323 2260ft 118kts
01-Nov-20 13:34 33.289318 -111.928099 352 2081ft 101kts
01-Nov-20 13:35 33.317859 -111.935712 354 2034ft 108kts
01-Nov-20 13:36 33.318478 -111.920555 124 1680ft 77kts
01-Nov-20 13:37 33.299526 -111.915423 177 1180ft 37kts
01-Nov-20 13:38 33.298077 -111.916756 279 1180ft 9kts
01-Nov-20 13:39 33.298414 -111.917008 181 1180ft 0kts
01-Nov-20 13:40 33.298414 -111.917008 181 1180ft 0kts
01-Nov-20 13:41 33.298414 -111.917008 181 1180ft 0kts
01-Nov-20 13:42 33.298414 -111.917008 181 1180ft 0kts
01-Nov-20 13:44 33.298414 -111.917008 181 1180ft 0kts
01-Nov-20 13:45 33.298414 -111.917008 181 1180ft 0kts
01-Nov-20 13:46 33.298414 -111.917008 181 1180ft 0kts

Navigation Log

Ident Type
Flight plan parsing failed, navigation log unavailable